Terminal Aerodrome Forecast
Issued by NWS Cleveland, OH

Home | Current Version | Previous Version | Text Only | Print | Product List | Glossary On
Versions: 1 2 3 4 5 6 7 8 9 10 11 12 13 14 15 16
000
FTUS41 KCLE 311500 AAA
TAFCAK
TAF AMD
KCAK 311518Z 3115/0112 22008KT P6SM SCT025 OVC035
     FM311800 22008KT P6SM VCSH BKN025 OVC035
      TEMPO 3118/3120 4SM -SHRA BR SCT008 OVC015
     FM312000 02008KT 2SM -SHRA BR OVC008=

USA.gov is the U.S. government's official web portal to all federal, state and local government web resources and services.